createdAt,value
2022-12-03T00:58:15.519Z,24.65
2022-12-03T01:00:42.923Z,21.73
2022-12-03T02:35:01.224Z,19.75
2022-12-03T02:37:35.378Z,19.58
2022-12-03T02:40:07.334Z,18.30
2022-12-03T02:42:37.888Z,23.83
2022-12-03T02:45:25.615Z,19.45
2022-12-03T02:48:15.629Z,21.95
2022-12-03T02:50:52.209Z,24.50
2022-12-03T02:53:24.850Z,26.30
2022-12-03T02:55:53.232Z,18.85
2022-12-03T02:58:22.256Z,19.95
2022-12-03T03:00:50.886Z,17.90
2022-12-03T03:03:20.081Z,17.70
2022-12-03T03:05:49.269Z,20.20
2022-12-03T03:08:17.967Z,20.75
2022-12-03T03:10:47.719Z,20.23
2022-12-03T03:13:18.145Z,17.83
2022-12-03T03:15:46.433Z,24.77
2022-12-03T03:18:15.173Z,19.40
2022-12-03T03:20:42.939Z,19.10
2022-12-03T03:23:20.278Z,20.55
2022-12-03T03:25:54.174Z,21.30
2022-12-03T03:28:21.589Z,18.27
2022-12-03T03:30:49.072Z,19.20
2022-12-03T03:33:17.135Z,23.23
2022-12-03T03:35:46.497Z,28.50
2022-12-03T03:38:14.934Z,20.15
2022-12-03T03:40:43.026Z,19.42
2022-12-03T03:43:10.745Z,20.10
2022-12-03T03:45:38.308Z,23.20
2022-12-03T03:48:05.984Z,19.92
2022-12-03T03:50:34.031Z,16.52
2022-12-03T03:53:03.221Z,22.67
2022-12-03T03:55:31.867Z,17.35
2022-12-03T03:57:59.426Z,21.35
2022-12-03T04:00:26.967Z,21.83
2022-12-03T04:02:54.588Z,24.88
2022-12-03T04:05:24.184Z,17.92
2022-12-03T04:07:52.312Z,19.67
2022-12-03T04:10:38.251Z,21.65
2022-12-03T04:13:06.376Z,22.10
2022-12-03T04:15:33.850Z,20.83
2022-12-03T04:18:19.782Z,17.50
2022-12-03T04:20:47.195Z,16.38
2022-12-03T04:23:14.553Z,21.85
2022-12-03T04:26:00.509Z,22.58
2022-12-03T04:28:46.440Z,22.77
2022-12-03T04:31:32.486Z,22.65
2022-12-03T04:34:18.252Z,18.67
2022-12-03T04:36:46.551Z,18.48
2022-12-03T04:39:14.016Z,21.58
2022-12-03T04:41:41.508Z,18.88
2022-12-03T04:44:27.273Z,19.80
2022-12-03T04:46:54.706Z,21.20
2022-12-03T04:49:22.615Z,21.45
2022-12-03T04:51:50.119Z,25.60
2022-12-03T04:54:17.711Z,22.52
2022-12-03T04:56:45.417Z,22.42
2022-12-03T04:59:16.230Z,20.05
2022-12-03T05:01:44.751Z,20.35
2022-12-03T05:04:13.581Z,25.27
2022-12-03T05:06:41.290Z,20.58
2022-12-03T05:09:09.449Z,19.33
2022-12-03T05:11:36.809Z,18.77
2022-12-03T05:14:04.458Z,16.63
2022-12-03T05:16:32.025Z,20.23
2022-12-03T05:18:59.441Z,23.98
2022-12-03T05:21:26.838Z,22.33
2022-12-03T05:23:54.326Z,19.05
2022-12-03T05:26:22.120Z,21.55
2022-12-03T05:28:49.743Z,23.42
2022-12-03T05:31:17.390Z,24.17
2022-12-03T05:33:44.779Z,21.48
2022-12-03T05:36:12.340Z,21.83
2022-12-03T05:38:39.742Z,19.38
2022-12-03T05:41:27.137Z,18.85
2022-12-03T05:43:54.560Z,19.27
2022-12-03T05:46:22.003Z,20.38
2022-12-03T05:48:49.433Z,19.10
2022-12-03T05:51:16.847Z,21.60
2022-12-03T05:53:44.250Z,22.67
2022-12-03T05:56:11.611Z,21.02
2022-12-03T05:58:39.037Z,20.48
2022-12-03T06:01:06.516Z,15.65
2022-12-03T06:03:34.036Z,16.92
2022-12-03T06:06:02.194Z,17.88
2022-12-03T06:08:29.591Z,18.70
2022-12-03T06:10:57.002Z,20.85
2022-12-03T06:13:24.455Z,17.25
2022-12-03T06:15:51.883Z,23.83
2022-12-03T06:18:19.236Z,23.45
2022-12-03T06:20:46.552Z,21.45
2022-12-03T06:23:13.891Z,21.92
2022-12-03T06:25:41.261Z,26.02
2022-12-03T06:28:08.936Z,19.52
2022-12-03T06:30:36.375Z,21.42
2022-12-03T06:33:03.927Z,25.08
2022-12-03T06:35:31.407Z,21.33
2022-12-03T06:37:58.836Z,29.15
2022-12-03T06:40:26.309Z,23.80
2022-12-03T06:42:53.870Z,25.20
2022-12-03T06:45:21.412Z,27.95
2022-12-03T06:47:48.761Z,29.10
2022-12-03T06:50:16.398Z,24.70
2022-12-03T06:52:43.801Z,26.65
2022-12-03T06:55:11.169Z,24.20
2022-12-03T06:57:38.555Z,27.38
2022-12-03T07:00:08.975Z,36.15
2022-12-03T07:02:36.418Z,33.13
2022-12-03T07:05:04.264Z,26.08
2022-12-03T07:07:32.094Z,27.15
2022-12-03T07:09:59.843Z,29.38
2022-12-03T07:12:27.246Z,22.25
2022-12-03T07:14:54.786Z,24.25
2022-12-03T07:17:22.308Z,32.35
2022-12-03T07:19:49.711Z,30.88
2022-12-03T07:22:17.079Z,29.05
2022-12-03T07:24:44.417Z,33.63
2022-12-03T07:27:11.726Z,28.58
2022-12-03T07:29:39.089Z,25.83
2022-12-03T07:32:06.517Z,29.50
2022-12-03T07:34:33.966Z,27.13
2022-12-03T07:37:01.276Z,25.63
2022-12-03T07:39:28.633Z,26.55
2022-12-03T07:41:56.021Z,27.65
2022-12-03T07:44:23.386Z,26.35
2022-12-03T07:46:50.893Z,25.63
2022-12-03T07:49:18.528Z,26.35
2022-12-03T07:51:53.857Z,26.55
2022-12-03T07:54:22.002Z,20.83
2022-12-03T07:56:49.476Z,33.95
2022-12-03T07:59:17.771Z,29.95
2022-12-03T08:01:46.098Z,22.48
2022-12-03T08:04:14.834Z,18.05
2022-12-03T08:06:42.177Z,20.58
2022-12-03T08:09:14.585Z,21.58
2022-12-03T08:11:45.233Z,23.55
2022-12-03T08:14:18.214Z,21.38
2022-12-03T08:16:47.330Z,23.85
2022-12-03T08:19:16.753Z,24.65
2022-12-03T08:21:44.870Z,23.73
2022-12-03T08:24:21.696Z,32.80
2022-12-03T08:26:49.671Z,19.17
2022-12-03T08:29:19.549Z,24.83
2022-12-03T08:31:52.476Z,20.95
2022-12-03T08:34:22.570Z,22.15
2022-12-03T08:36:56.150Z,21.90
2022-12-03T08:39:35.859Z,20.80
2022-12-03T08:42:27.765Z,20.38
2022-12-03T08:44:55.931Z,22.30
2022-12-03T08:47:24.707Z,23.40
2022-12-03T08:50:00.159Z,23.02
2022-12-03T08:52:33.365Z,24.27
2022-12-03T08:55:23.111Z,19.08
2022-12-03T08:57:50.645Z,20.60
2022-12-03T09:00:23.894Z,23.30
2022-12-03T09:02:59.549Z,24.98
2022-12-03T09:05:30.927Z,30.60
2022-12-03T09:07:58.396Z,25.10
2022-12-03T09:10:25.778Z,39.33
2022-12-03T09:12:53.146Z,29.10
2022-12-03T09:15:20.488Z,30.88
2022-12-03T09:17:48.996Z,25.92
2022-12-03T09:20:16.764Z,17.60
2022-12-03T09:22:44.127Z,25.88
2022-12-03T09:25:11.630Z,18.13
2022-12-03T09:27:39.021Z,22.10
2022-12-03T09:30:07.128Z,23.58
2022-12-03T09:32:34.571Z,27.38
2022-12-03T09:35:02.053Z,19.90
2022-12-03T09:37:29.511Z,19.83
2022-12-03T09:39:56.904Z,21.48
2022-12-03T09:42:25.883Z,19.98
2022-12-03T09:44:54.190Z,19.00
2022-12-03T09:47:22.435Z,18.73
2022-12-03T09:49:49.916Z,18.00
2022-12-03T09:52:26.126Z,19.40
2022-12-03T09:54:55.348Z,20.27
2022-12-03T09:57:23.015Z,18.60
2022-12-03T09:59:50.823Z,27.55
2022-12-03T10:02:25.757Z,20.30
2022-12-03T10:04:53.759Z,16.73
2022-12-03T10:07:21.860Z,14.45
2022-12-03T10:09:49.417Z,16.60
2022-12-03T10:12:23.322Z,16.35
2022-12-03T10:14:51.775Z,17.77
2022-12-03T10:17:19.613Z,22.02
2022-12-03T10:19:47.394Z,17.55
2022-12-03T10:22:14.938Z,15.25
2022-12-03T10:24:44.960Z,18.90
2022-12-03T10:27:24.569Z,21.52
2022-12-03T10:29:57.096Z,18.75
2022-12-03T10:32:41.473Z,20.45
2022-12-03T10:35:11.012Z,21.52
2022-12-03T10:38:03.194Z,21.10
2022-12-03T10:40:33.231Z,18.65
2022-12-03T10:43:20.786Z,18.67
2022-12-03T10:46:04.520Z,19.02
2022-12-03T10:48:32.196Z,21.52
2022-12-03T10:51:13.213Z,23.13
2022-12-03T10:56:13.539Z,20.10
2022-12-03T10:58:41.726Z,24.45
2022-12-03T11:01:19.974Z,18.35
2022-12-03T11:03:47.986Z,18.90
2022-12-03T11:06:18.248Z,21.02
2022-12-03T11:08:54.619Z,20.98
2022-12-03T11:11:26.483Z,17.10
2022-12-03T11:13:55.154Z,18.85
2022-12-03T11:16:40.845Z,21.05
2022-12-03T11:19:14.227Z,19.52
2022-12-03T11:22:05.169Z,19.77
2022-12-03T11:27:08.635Z,20.80
2022-12-03T11:29:58.847Z,22.33
2022-12-03T11:32:46.759Z,24.15
2022-12-03T11:35:28.909Z,26.23
2022-12-03T11:38:34.702Z,25.75
2022-12-03T11:41:14.065Z,23.67
2022-12-03T11:43:53.590Z,27.00
2022-12-03T11:46:25.387Z,20.35
2022-12-03T11:48:55.991Z,22.67
2022-12-03T11:51:26.135Z,19.90
2022-12-03T11:53:56.375Z,23.02
2022-12-03T11:56:29.346Z,19.55
2022-12-03T11:59:02.344Z,24.40
2022-12-03T12:01:38.601Z,26.17
2022-12-03T12:04:08.193Z,21.98
2022-12-03T12:06:43.388Z,21.67
2022-12-03T12:09:11.198Z,20.15
2022-12-03T12:11:44.046Z,20.65
2022-12-03T12:14:12.985Z,24.38
2022-12-03T12:16:51.069Z,26.58
2022-12-03T12:19:35.166Z,23.52
2022-12-03T12:22:25.232Z,21.70
2022-12-03T12:24:59.994Z,24.85
2022-12-03T12:27:45.275Z,25.73
2022-12-03T12:30:18.628Z,20.20
2022-12-03T12:32:52.128Z,23.25
2022-12-03T12:35:25.212Z,17.90
2022-12-03T12:38:00.257Z,19.58
2022-12-03T12:40:30.936Z,22.95
2022-12-03T12:43:04.151Z,23.58
2022-12-03T12:45:37.450Z,16.10
2022-12-03T12:48:20.002Z,22.17
2022-12-03T12:50:50.736Z,24.30
2022-12-03T12:53:25.999Z,22.58
2022-12-03T12:56:06.805Z,23.15
2022-12-03T12:58:34.705Z,22.67
2022-12-03T13:01:07.731Z,19.15
2022-12-03T13:03:38.529Z,18.85
2022-12-03T13:06:06.336Z,23.17
2022-12-03T13:08:37.349Z,22.88
2022-12-03T13:11:05.011Z,22.25
2022-12-03T13:13:44.282Z,24.13
2022-12-03T13:16:18.394Z,20.13
2022-12-03T13:18:48.487Z,21.55
2022-12-03T13:21:26.493Z,22.80
2022-12-03T13:23:57.285Z,19.58
2022-12-03T13:26:42.848Z,23.92
2022-12-03T13:29:19.706Z,24.83
2022-12-03T13:31:54.359Z,20.73
2022-12-03T13:34:24.577Z,19.83
2022-12-03T13:36:57.957Z,22.10
2022-12-03T13:39:37.304Z,24.90
2022-12-03T13:42:42.389Z,22.45
2022-12-03T13:45:29.808Z,27.67
2022-12-03T13:48:00.421Z,20.33
2022-12-03T13:50:38.231Z,25.10
2022-12-03T13:53:11.722Z,35.83
2022-12-03T13:55:42.314Z,23.50
2022-12-03T13:58:09.765Z,24.75
2022-12-03T14:00:37.724Z,28.67
2022-12-03T14:03:05.919Z,28.55
2022-12-03T14:05:33.321Z,26.77
2022-12-03T14:08:03.460Z,23.10
2022-12-03T14:10:31.311Z,26.05
2022-12-03T14:12:58.905Z,25.08
2022-12-03T14:15:28.829Z,25.55
2022-12-03T14:17:56.360Z,22.33
2022-12-03T14:20:23.812Z,28.42
2022-12-03T14:22:55.119Z,26.60
2022-12-03T14:25:26.556Z,24.40
2022-12-03T14:27:54.242Z,31.02
2022-12-03T14:30:21.743Z,32.90
2022-12-03T14:32:49.253Z,25.42
2022-12-03T14:35:16.656Z,26.63
2022-12-03T14:37:44.149Z,26.92
2022-12-03T14:40:16.552Z,29.10
2022-12-03T14:42:47.270Z,27.15
2022-12-03T14:45:14.820Z,26.35
2022-12-03T14:47:42.253Z,30.55
2022-12-03T14:50:14.295Z,29.25
2022-12-03T14:52:42.067Z,24.67
2022-12-03T14:55:09.711Z,26.92
2022-12-03T14:57:37.152Z,31.60
2022-12-03T15:00:06.871Z,30.95
2022-12-03T15:02:34.416Z,27.67
2022-12-03T15:05:02.069Z,28.20
2022-12-03T15:07:29.831Z,29.45
2022-12-03T15:09:57.640Z,32.58
2022-12-03T15:12:25.249Z,29.15
2022-12-03T15:14:53.165Z,29.55
2022-12-03T15:17:29.493Z,30.30
2022-12-03T15:19:58.944Z,27.77
2022-12-03T15:22:26.236Z,26.25
2022-12-03T15:24:53.565Z,27.15
2022-12-03T15:27:21.177Z,35.38
2022-12-03T15:29:48.595Z,26.50
2022-12-03T15:32:16.069Z,32.75
2022-12-03T15:34:43.640Z,28.90
2022-12-03T15:37:11.023Z,28.80
2022-12-03T15:39:41.303Z,26.48
2022-12-03T15:42:12.556Z,25.63
2022-12-03T15:44:39.851Z,25.52
2022-12-03T15:47:07.252Z,27.60
2022-12-03T15:49:34.601Z,30.58
2022-12-03T15:52:02.071Z,27.10
2022-12-03T15:54:29.437Z,29.88
2022-12-03T15:56:57.668Z,27.95
2022-12-03T15:59:25.486Z,27.02
2022-12-03T16:01:52.939Z,35.40
2022-12-03T16:04:20.332Z,26.48
2022-12-03T16:06:47.739Z,24.08
2022-12-03T16:09:15.116Z,27.35
2022-12-03T16:11:42.483Z,26.85
2022-12-03T16:14:09.853Z,28.65
2022-12-03T16:16:37.324Z,28.10
2022-12-03T16:19:04.735Z,26.30
2022-12-03T16:21:32.079Z,23.02
2022-12-03T16:24:00.529Z,21.75
2022-12-03T16:26:28.005Z,25.00
2022-12-03T16:28:55.396Z,25.33
2022-12-03T16:31:23.039Z,26.67
2022-12-03T16:33:50.796Z,20.52
2022-12-03T16:36:18.243Z,20.75
2022-12-03T16:38:45.693Z,26.85
2022-12-03T16:41:13.212Z,23.08
2022-12-03T16:43:40.650Z,20.20
2022-12-03T16:46:14.461Z,20.67
2022-12-03T16:48:41.961Z,17.67
2022-12-03T16:51:09.778Z,18.38
2022-12-03T16:53:37.691Z,19.98
2022-12-03T16:56:05.233Z,16.35
2022-12-03T16:58:33.254Z,19.98
2022-12-03T17:01:00.906Z,17.98
2022-12-03T17:03:33.669Z,15.27
2022-12-03T17:06:02.498Z,18.75
2022-12-03T17:08:30.389Z,18.55
2022-12-03T17:10:57.928Z,21.15
2022-12-03T17:13:25.387Z,16.02
2022-12-03T17:15:52.864Z,18.05
2022-12-03T17:18:21.008Z,19.25
2022-12-03T17:20:48.396Z,19.83
2022-12-03T17:23:17.773Z,23.58
2022-12-03T17:25:45.194Z,18.48
2022-12-03T17:28:12.579Z,16.80
2022-12-03T17:30:40.036Z,18.23
2022-12-03T17:33:07.422Z,19.20
2022-12-03T17:35:34.959Z,16.13
2022-12-03T17:38:02.676Z,17.35
2022-12-03T17:40:30.100Z,19.55
2022-12-03T17:42:57.432Z,18.27
2022-12-03T17:45:24.863Z,16.25
2022-12-03T17:47:52.236Z,17.85
2022-12-03T17:50:19.646Z,17.00
2022-12-03T17:52:47.036Z,17.08
2022-12-03T17:55:21.618Z,17.75
2022-12-03T17:57:53.704Z,19.40
2022-12-03T18:00:21.187Z,17.50
2022-12-03T18:02:48.661Z,23.25
2022-12-03T18:05:16.125Z,16.88
2022-12-03T18:07:43.532Z,23.10
2022-12-03T18:10:11.177Z,18.35
2022-12-03T18:12:38.580Z,21.48
2022-12-03T18:15:06.498Z,22.23
2022-12-03T18:17:33.859Z,18.67
2022-12-03T18:20:01.299Z,18.60
2022-12-03T18:22:29.062Z,19.45
2022-12-03T18:24:56.758Z,20.63
2022-12-03T18:27:24.763Z,21.60
2022-12-03T18:29:52.720Z,19.30
2022-12-03T18:32:28.747Z,24.95
2022-12-03T18:34:56.877Z,20.73
2022-12-03T18:37:27.525Z,22.23
2022-12-03T18:39:56.461Z,24.27
2022-12-03T18:42:24.774Z,24.70
2022-12-03T18:44:54.119Z,21.42
2022-12-03T18:47:29.272Z,22.95
2022-12-03T18:49:57.050Z,22.15
2022-12-03T18:52:25.292Z,23.08
2022-12-03T18:54:54.508Z,24.33
2022-12-03T18:57:21.987Z,18.48
2022-12-03T18:59:49.382Z,27.50
2022-12-03T19:05:09.337Z,26.95
2022-12-03T19:07:36.924Z,34.65
2022-12-03T19:10:04.849Z,31.55
2022-12-03T19:12:32.984Z,29.52
2022-12-03T19:15:00.411Z,23.40
2022-12-03T19:17:28.310Z,28.25
2022-12-03T19:19:55.995Z,23.88
2022-12-03T19:22:24.310Z,25.70
2022-12-03T19:24:51.694Z,31.48
2022-12-03T19:27:19.249Z,22.95
2022-12-03T19:29:49.751Z,20.92
2022-12-03T19:32:17.437Z,26.42
2022-12-03T19:34:44.813Z,30.70
2022-12-03T19:37:12.204Z,25.27
2022-12-03T19:39:39.559Z,29.40
2022-12-03T19:42:07.133Z,28.55
2022-12-03T19:44:34.588Z,29.40
2022-12-03T19:47:03.053Z,26.58
2022-12-03T19:49:30.437Z,28.95
2022-12-03T19:51:57.933Z,27.92
2022-12-03T19:54:25.568Z,26.95
2022-12-03T19:56:52.991Z,31.73
2022-12-03T19:59:20.402Z,27.52
2022-12-03T20:01:47.838Z,26.00
2022-12-03T20:04:15.483Z,25.80
2022-12-03T20:06:43.048Z,32.75
2022-12-03T20:09:12.704Z,32.70
2022-12-03T20:11:41.487Z,27.17
2022-12-03T20:14:11.681Z,29.55
2022-12-03T20:16:39.253Z,28.40
2022-12-03T20:19:08.476Z,32.72
2022-12-03T20:21:37.152Z,25.58
2022-12-03T20:24:05.095Z,25.92
2022-12-03T20:26:32.528Z,30.02
2022-12-03T20:29:00.598Z,28.40
2022-12-03T20:31:30.950Z,28.10
2022-12-03T20:34:01.401Z,28.45
2022-12-03T20:36:31.099Z,33.80
2022-12-03T20:39:01.567Z,26.13
2022-12-03T20:41:29.331Z,28.17
2022-12-03T20:43:56.816Z,28.23
2022-12-03T20:46:30.366Z,36.50
2022-12-03T20:48:58.958Z,30.67
2022-12-03T20:51:30.012Z,34.75
2022-12-03T20:53:59.301Z,33.72
2022-12-03T20:56:32.929Z,30.00
2022-12-03T20:59:05.593Z,34.13
2022-12-03T21:01:34.487Z,26.80
2022-12-03T21:04:03.425Z,34.55
2022-12-03T21:06:31.414Z,34.25
2022-12-03T21:09:00.762Z,32.33
2022-12-03T21:11:30.960Z,34.13
2022-12-03T21:13:59.751Z,34.95
2022-12-03T21:16:59.250Z,37.90
2022-12-03T21:19:18.363Z,32.75
2022-12-03T21:21:46.265Z,27.05
2022-12-03T21:24:14.053Z,30.85
2022-12-03T21:26:41.822Z,32.85
2022-12-03T21:29:09.405Z,30.48
2022-12-03T21:31:38.482Z,33.53
2022-12-03T21:34:06.556Z,39.15
2022-12-03T21:36:34.393Z,34.10
2022-12-03T21:39:01.839Z,36.22
2022-12-03T21:41:29.382Z,39.55
2022-12-03T21:43:56.893Z,42.88
2022-12-03T21:47:10.360Z,41.58
2022-12-03T21:49:11.764Z,34.72
2022-12-03T21:51:39.236Z,36.75
2022-12-03T21:54:06.682Z,34.60
2022-12-03T21:56:34.198Z,32.50
2022-12-03T21:59:01.801Z,36.95
2022-12-03T22:01:29.433Z,35.05
2022-12-03T22:03:57.655Z,37.13
2022-12-03T22:06:25.244Z,41.90
2022-12-03T22:08:52.695Z,39.80
2022-12-03T22:11:22.600Z,43.38
2022-12-03T22:13:51.398Z,40.95
2022-12-03T22:16:21.006Z,38.38
2022-12-03T22:18:49.077Z,45.20
2022-12-03T22:21:18.857Z,37.25
2022-12-03T22:23:46.268Z,42.70
2022-12-03T22:26:16.451Z,29.67
2022-12-03T22:28:46.039Z,38.70
2022-12-03T22:31:14.364Z,39.83
2022-12-03T22:33:42.499Z,41.58
2022-12-03T22:36:20.133Z,42.35
2022-12-03T22:38:51.871Z,31.80
2022-12-03T22:41:20.015Z,40.47
2022-12-03T22:43:48.388Z,43.70
2022-12-03T22:46:16.904Z,32.40
2022-12-03T22:48:46.208Z,34.38
2022-12-03T22:51:23.785Z,39.95
2022-12-03T22:53:59.219Z,46.42
2022-12-03T22:56:28.633Z,45.72
2022-12-03T22:58:56.148Z,39.25
2022-12-03T23:01:26.784Z,45.35
2022-12-03T23:03:54.908Z,28.73
2022-12-03T23:06:23.347Z,40.30
2022-12-03T23:08:51.647Z,43.75
2022-12-03T23:11:19.618Z,38.85
2022-12-03T23:13:47.305Z,38.40
2022-12-03T23:16:18.142Z,40.00
2022-12-03T23:21:28.892Z,40.78
2022-12-03T23:23:57.162Z,38.28
2022-12-03T23:26:25.067Z,45.17
2022-12-03T23:28:52.726Z,39.95
2022-12-03T23:31:29.723Z,37.38
2022-12-03T23:33:59.269Z,37.47
2022-12-03T23:36:29.375Z,42.65
2022-12-03T23:38:57.508Z,35.57
2022-12-03T23:41:26.067Z,40.08
2022-12-03T23:43:53.993Z,43.50
2022-12-03T23:46:24.652Z,37.83
2022-12-03T23:48:52.716Z,39.53
2022-12-03T23:51:23.496Z,39.63
2022-12-03T23:53:53.131Z,46.20
2022-12-03T23:56:24.038Z,44.17
2022-12-03T23:58:52.007Z,41.13
